createdAt,value
2023-10-20T00:00:51.905Z,96890.15
2023-10-20T00:03:57.789Z,96899.80
2023-10-20T00:07:04.456Z,96899.62
2023-10-20T00:10:12.858Z,96898.70
2023-10-20T00:13:19.006Z,96902.32
2023-10-20T00:16:27.422Z,96899.04
2023-10-20T00:19:33.384Z,96897.92
2023-10-20T00:22:39.653Z,96901.48
2023-10-20T00:25:44.389Z,96904.02
2023-10-20T00:28:51.228Z,96909.16
2023-10-20T00:31:57.806Z,96907.14
2023-10-20T00:35:05.197Z,96910.29
2023-10-20T00:38:11.913Z,96913.75
2023-10-20T00:41:18.720Z,96911.27
2023-10-20T00:44:25.112Z,96911.85
2023-10-20T00:47:32.462Z,96907.28
2023-10-20T00:50:40.290Z,96895.49
2023-10-20T00:53:48.900Z,96899.71
2023-10-20T00:56:55.941Z,96906.18
2023-10-20T01:00:04.982Z,96907.08
2023-10-20T01:03:12.690Z,96904.52
2023-10-20T01:06:19.087Z,96890.69
2023-10-20T01:09:27.790Z,96883.92
2023-10-20T01:12:33.919Z,96885.15
2023-10-20T01:15:40.115Z,96882.30
2023-10-20T01:18:44.946Z,96875.23
2023-10-20T01:21:50.791Z,96880.08
2023-10-20T01:24:56.662Z,96889.02
2023-10-20T01:28:02.709Z,96884.67
2023-10-20T01:31:08.673Z,96883.71
2023-10-20T01:34:14.576Z,96876.98
2023-10-20T01:37:21.556Z,96876.77
2023-10-20T01:40:28.736Z,96863.91
2023-10-20T01:43:34.976Z,96850.84
2023-10-20T01:46:40.543Z,96848.21
2023-10-20T01:49:46.789Z,96850.06
2023-10-20T01:52:52.741Z,96846.04
2023-10-20T01:55:58.739Z,96848.05
2023-10-20T01:59:04.992Z,96840.18
2023-10-20T02:02:10.390Z,96840.13
2023-10-20T02:05:17.248Z,96841.13
2023-10-20T02:08:23.367Z,96843.60
2023-10-20T02:11:28.043Z,96845.08
2023-10-20T02:14:34.597Z,96831.99
2023-10-20T02:17:40.967Z,96825.54
2023-10-20T02:20:47.083Z,96818.31
2023-10-20T02:23:53.485Z,96818.64
2023-10-20T02:26:59.846Z,96814.98
2023-10-20T02:30:06.688Z,96814.64
2023-10-20T02:33:12.426Z,96817.72
2023-10-20T02:36:20.936Z,96819.73
2023-10-20T02:39:27.972Z,96816.83
2023-10-20T02:42:34.393Z,96819.56
2023-10-20T02:45:48.693Z,96819.90
2023-10-20T02:48:54.219Z,96815.92
2023-10-20T02:52:00.395Z,96810.88
2023-10-20T02:55:05.094Z,96814.38
2023-10-20T02:58:12.132Z,96813.19
2023-10-20T03:01:20.387Z,96811.60
2023-10-20T03:04:26.562Z,96794.94
2023-10-20T03:07:30.591Z,96790.76
2023-10-20T03:10:36.574Z,96796.04
2023-10-20T03:13:42.346Z,96796.54
2023-10-20T03:16:48.493Z,96795.58
2023-10-20T03:19:52.713Z,96793.78
2023-10-20T03:22:58.482Z,96795.61
2023-10-20T03:26:04.427Z,96794.41
2023-10-20T03:29:11.216Z,96785.16
2023-10-20T03:32:17.332Z,96773.18
2023-10-20T03:35:24.064Z,96767.42
2023-10-20T03:38:30.549Z,96769.78
2023-10-20T03:41:36.633Z,96763.67
2023-10-20T03:44:43.909Z,96758.63
2023-10-20T03:47:51.470Z,96760.33
2023-10-20T03:50:58.043Z,96757.03
2023-10-20T03:54:06.494Z,96754.20
2023-10-20T03:57:16.973Z,96747.74
2023-10-20T04:00:29.856Z,96746.80
2023-10-20T04:03:36.068Z,96744.36
2023-10-20T04:06:42.328Z,96752.51
2023-10-20T04:09:48.400Z,96762.20
2023-10-20T04:12:53.920Z,96763.36
2023-10-20T04:16:00.127Z,96754.40
2023-10-20T04:19:07.668Z,96756.10
2023-10-20T04:22:14.533Z,96754.93
2023-10-20T04:25:22.173Z,96755.65
2023-10-20T04:28:34.123Z,96754.05
2023-10-20T04:31:57.608Z,96744.83
2023-10-20T04:35:21.187Z,96737.42
2023-10-20T04:38:44.433Z,96730.91
2023-10-20T04:41:57.014Z,96726.07
2023-10-20T04:45:16.914Z,96725.75
2023-10-20T04:48:36.707Z,96727.06
2023-10-20T04:51:59.554Z,96737.08
2023-10-20T04:55:19.952Z,96743.43
2023-10-20T04:58:36.188Z,96738.97
2023-10-20T05:01:49.012Z,96736.23
2023-10-20T05:04:54.844Z,96737.64
2023-10-20T05:08:06.197Z,96740.35
2023-10-20T05:11:12.666Z,96738.16
2023-10-20T05:14:18.824Z,96735.33
2023-10-20T05:17:23.405Z,96732.33
2023-10-20T05:20:29.085Z,96738.55
2023-10-20T05:23:36.521Z,96747.44
2023-10-20T05:26:42.365Z,96748.73
2023-10-20T05:29:48.745Z,96749.80
2023-10-20T05:32:53.323Z,96747.29
2023-10-20T05:36:04.755Z,96744.15
2023-10-20T05:39:15.340Z,96739.56
2023-10-20T05:42:21.603Z,96739.31
2023-10-20T05:45:30.436Z,96743.71
2023-10-20T05:48:36.252Z,96744.44
2023-10-20T05:51:42.051Z,96743.60
2023-10-20T05:54:48.167Z,96743.19
2023-10-20T05:57:54.170Z,96745.48
2023-10-20T06:01:07.951Z,96749.73
2023-10-20T06:04:14.011Z,96745.77
2023-10-20T06:07:20.244Z,96748.78
2023-10-20T06:10:24.697Z,96743.97
2023-10-20T06:13:30.335Z,96746.93
2023-10-20T06:16:36.125Z,96752.23
2023-10-20T06:19:41.997Z,96739.54
2023-10-20T06:22:47.868Z,96739.63
2023-10-20T06:25:53.419Z,96735.70
2023-10-20T06:28:59.093Z,96730.63
2023-10-20T06:32:12.250Z,96730.60
2023-10-20T06:35:18.484Z,96738.46
2023-10-20T06:38:32.045Z,96726.21
2023-10-20T06:41:38.108Z,96711.59
2023-10-20T06:44:44.496Z,96713.81
2023-10-20T06:47:50.599Z,96713.73
2023-10-20T06:50:57.329Z,96716.21
2023-10-20T06:54:03.363Z,96720.05
2023-10-20T06:57:07.926Z,96722.34
2023-10-20T07:00:19.237Z,96724.58
2023-10-20T07:03:25.618Z,96725.49
2023-10-20T07:06:31.723Z,96729.11
2023-10-20T07:09:38.400Z,96722.95
2023-10-20T07:12:44.838Z,96718.98
2023-10-20T07:15:57.928Z,96712.88
2023-10-20T07:19:04.037Z,96703.33
2023-10-20T07:22:10.288Z,96703.55
2023-10-20T07:25:14.985Z,96692.36
2023-10-20T07:28:21.310Z,96696.35
2023-10-20T07:31:27.766Z,96690.02
2023-10-20T07:34:35.145Z,96686.81
2023-10-20T07:37:41.213Z,96678.55
2023-10-20T07:40:47.169Z,96689.52
2023-10-20T07:43:53.023Z,96685.29
2023-10-20T07:46:58.983Z,96689.85
2023-10-20T07:50:05.264Z,96683.77
2023-10-20T07:53:11.355Z,96672.98
2023-10-20T07:56:15.762Z,96674.16
2023-10-20T07:59:22.244Z,96676.58
2023-10-20T08:02:28.684Z,96671.52
2023-10-20T08:05:37.156Z,96655.54
2023-10-20T08:08:43.331Z,96641.02
2023-10-20T08:11:48.059Z,96639.63
2023-10-20T08:14:54.458Z,96640.08
2023-10-20T08:18:00.526Z,96635.66
2023-10-20T08:21:12.008Z,96641.98
2023-10-20T08:24:17.971Z,96638.55
2023-10-20T08:27:24.420Z,96644.73
2023-10-20T08:30:30.353Z,96644.64
2023-10-20T08:33:36.289Z,96637.14
2023-10-20T08:36:42.725Z,96635.09
2023-10-20T08:39:49.624Z,96634.78
2023-10-20T08:42:56.129Z,96633.02
2023-10-20T08:46:01.952Z,96629.41
2023-10-20T08:49:09.945Z,96620.42
2023-10-20T08:52:18.570Z,96608.67
2023-10-20T08:55:25.253Z,96599.05
2023-10-20T08:58:32.353Z,96598.74
2023-10-20T09:01:38.858Z,96607.46
2023-10-20T09:04:44.985Z,96611.91
2023-10-20T09:07:56.015Z,96612.64
2023-10-20T09:11:02.282Z,96612.41
2023-10-20T09:14:10.341Z,96603.51
2023-10-20T09:17:25.026Z,96603.94
2023-10-20T09:20:31.088Z,96603.70
2023-10-20T09:23:35.848Z,96597.89
2023-10-20T09:26:42.673Z,96596.61
2023-10-20T09:29:49.130Z,96594.52
2023-10-20T09:32:55.395Z,96593.83
2023-10-20T09:36:01.976Z,96592.20
2023-10-20T09:39:12.474Z,96591.61
2023-10-20T09:42:26.281Z,96604.60
2023-10-20T09:45:37.740Z,96598.08
2023-10-20T09:48:44.656Z,96596.17
2023-10-20T09:51:53.838Z,96586.88
2023-10-20T09:55:01.264Z,96576.63
2023-10-20T09:58:08.365Z,96568.86
2023-10-20T10:01:19.221Z,96567.23
2023-10-20T10:04:30.122Z,96560.02
2023-10-20T10:07:37.711Z,96547.58
2023-10-20T10:10:43.901Z,96537.98
2023-10-20T10:13:56.290Z,96536.23
2023-10-20T10:17:02.758Z,96530.65
2023-10-20T10:20:20.501Z,96526.20
2023-10-20T10:23:31.510Z,96521.65
2023-10-20T10:26:45.650Z,96522.80
2023-10-20T10:29:54.843Z,96526.41
2023-10-20T10:33:02.124Z,96523.80
2023-10-20T10:36:11.661Z,96514.67
2023-10-20T10:39:32.983Z,96508.95
2023-10-20T10:42:44.324Z,96514.86
2023-10-20T10:45:55.330Z,96509.60
2023-10-20T10:49:11.328Z,96512.88
2023-10-20T10:52:17.615Z,96516.16
2023-10-20T10:55:25.941Z,96512.96
2023-10-20T10:58:31.962Z,96503.23
2023-10-20T11:01:38.619Z,96499.56
2023-10-20T11:04:45.558Z,96492.55
2023-10-20T11:08:04.920Z,96492.61
2023-10-20T11:11:13.998Z,96486.50
2023-10-20T11:14:24.051Z,96482.60
2023-10-20T11:17:30.117Z,96487.33
2023-10-20T11:20:39.459Z,96500.91
2023-10-20T11:23:53.193Z,96505.15
2023-10-20T11:27:00.537Z,96509.86
2023-10-20T11:30:08.114Z,96525.37
2023-10-20T11:33:16.732Z,96530.66
2023-10-20T11:36:23.282Z,96525.02
2023-10-20T11:39:30.241Z,96517.02
2023-10-20T11:42:35.899Z,96516.73
2023-10-20T11:45:41.648Z,96503.60
2023-10-20T11:48:48.732Z,96504.80
2023-10-20T11:51:54.902Z,96503.03
2023-10-20T11:55:01.333Z,96503.77
2023-10-20T11:58:06.950Z,96520.17
2023-10-20T12:01:12.912Z,96531.71
2023-10-20T12:04:18.511Z,96528.88
2023-10-20T12:07:24.659Z,96532.84
2023-10-20T12:10:30.758Z,96534.91
2023-10-20T12:13:38.270Z,96527.65
2023-10-20T12:16:44.199Z,96528.79
2023-10-20T12:19:50.385Z,96521.52
2023-10-20T12:23:00.181Z,96520.80
2023-10-20T12:26:06.105Z,96527.19
2023-10-20T12:29:10.085Z,96509.91
2023-10-20T12:32:15.691Z,96512.07
2023-10-20T12:35:22.289Z,96512.73
2023-10-20T12:38:28.636Z,96506.23
2023-10-20T12:41:35.024Z,96500.09
2023-10-20T12:44:40.931Z,96496.18
2023-10-20T12:47:45.207Z,96485.45
2023-10-20T12:50:51.400Z,96480.40
2023-10-20T12:53:57.304Z,96486.48
2023-10-20T12:57:02.377Z,96470.11
2023-10-20T13:00:11.754Z,96471.17
2023-10-20T13:03:17.630Z,96468.91
2023-10-20T13:06:23.361Z,96473.21
2023-10-20T13:09:29.136Z,96472.05
2023-10-20T13:12:34.798Z,96468.58
2023-10-20T13:15:40.538Z,96464.48
2023-10-20T13:18:46.253Z,96447.81
2023-10-20T13:21:51.975Z,96439.73
2023-10-20T13:24:57.793Z,96440.14
2023-10-20T13:28:05.485Z,96449.95
2023-10-20T13:31:12.982Z,96458.49
2023-10-20T13:34:21.099Z,96466.94
2023-10-20T13:37:25.232Z,96473.64
2023-10-20T13:40:30.856Z,96479.26
2023-10-20T13:43:36.498Z,96482.33
2023-10-20T13:46:42.276Z,96493.34
2023-10-20T13:49:46.695Z,96489.91
2023-10-20T13:52:52.317Z,96491.73
2023-10-20T13:55:58.005Z,96490.08
2023-10-20T13:59:03.692Z,96497.07
2023-10-20T14:02:09.829Z,96486.89
2023-10-20T14:05:19.987Z,96476.66
2023-10-20T14:08:26.184Z,96485.41
2023-10-20T14:11:32.134Z,96496.64
2023-10-20T14:14:36.336Z,96501.56
2023-10-20T14:17:42.114Z,96506.77
2023-10-20T14:20:48.020Z,96507.09
2023-10-20T14:23:52.337Z,96508.65
2023-10-20T14:27:00.134Z,96501.42
2023-10-20T14:30:07.444Z,96502.19
2023-10-20T14:33:13.288Z,96498.39
2023-10-20T14:36:19.655Z,96499.91
2023-10-20T14:39:25.960Z,96500.86
2023-10-20T14:42:31.598Z,96488.38
2023-10-20T14:45:37.256Z,96476.84
2023-10-20T14:48:43.008Z,96469.89
2023-10-20T14:51:47.334Z,96454.45
2023-10-20T14:54:52.982Z,96449.81
2023-10-20T14:57:58.836Z,96448.38
2023-10-20T15:01:04.478Z,96455.35
2023-10-20T15:04:26.815Z,96443.98
2023-10-20T15:07:37.754Z,96435.27
2023-10-20T15:10:43.983Z,96449.59
2023-10-20T15:13:48.376Z,96471.98
2023-10-20T15:16:55.856Z,96476.23
2023-10-20T15:20:02.882Z,96475.23
2023-10-20T15:23:17.323Z,96471.59
2023-10-20T15:26:22.805Z,96480.88
2023-10-20T15:29:28.429Z,96482.56
2023-10-20T15:32:35.334Z,96479.00
2023-10-20T15:35:43.169Z,96486.94
2023-10-20T15:38:50.623Z,96496.44
2023-10-20T15:41:57.862Z,96493.79
2023-10-20T15:45:04.540Z,96491.55
2023-10-20T15:48:11.057Z,96492.65
2023-10-20T15:51:19.323Z,96490.48
2023-10-20T15:54:25.338Z,96489.84
2023-10-20T15:57:31.152Z,96486.09
2023-10-20T16:00:37.614Z,96486.79
2023-10-20T16:03:45.223Z,96488.98
2023-10-20T16:06:51.224Z,96495.16
2023-10-20T16:09:57.183Z,96496.67
2023-10-20T16:13:01.199Z,96498.76
2023-10-20T16:16:07.708Z,96505.71
2023-10-20T16:19:13.382Z,96508.91
2023-10-20T16:22:19.174Z,96509.02
2023-10-20T16:25:24.754Z,96506.27
2023-10-20T16:28:30.376Z,96511.55
2023-10-20T16:31:36.149Z,96517.27
2023-10-20T16:34:40.579Z,96517.88
2023-10-20T16:37:46.638Z,96513.92
2023-10-20T16:40:53.720Z,96508.27
2023-10-20T16:43:59.770Z,96515.02
2023-10-20T16:47:05.663Z,96514.65
2023-10-20T16:50:10.167Z,96510.80
2023-10-20T16:53:15.748Z,96510.55
2023-10-20T16:56:21.652Z,96510.17
2023-10-20T16:59:27.670Z,96513.59
2023-10-20T17:02:33.836Z,96513.71
2023-10-20T17:05:42.553Z,96507.02
2023-10-20T17:08:48.300Z,96503.41
2023-10-20T17:11:54.257Z,96505.91
2023-10-20T17:14:58.982Z,96504.74
2023-10-20T17:18:07.633Z,96508.17
2023-10-20T17:21:14.420Z,96510.12
2023-10-20T17:24:20.432Z,96510.20
2023-10-20T17:27:24.727Z,96505.27
2023-10-20T17:30:30.512Z,96501.44
2023-10-20T17:33:39.361Z,96503.00
2023-10-20T17:36:45.410Z,96510.65
2023-10-20T17:39:50.208Z,96518.56
2023-10-20T17:42:56.014Z,96518.75
2023-10-20T17:46:06.378Z,96525.61
2023-10-20T17:49:12.144Z,96528.10
2023-10-20T17:52:18.108Z,96528.60
2023-10-20T17:55:22.771Z,96523.63
2023-10-20T17:58:28.555Z,96524.34
2023-10-20T18:01:34.591Z,96523.06
2023-10-20T18:04:40.464Z,96519.95
2023-10-20T18:07:46.274Z,96524.61
2023-10-20T18:10:52.056Z,96529.33
2023-10-20T18:13:57.914Z,96531.25
2023-10-20T18:17:04.225Z,96542.46
2023-10-20T18:20:13.619Z,96543.50
2023-10-20T18:23:19.585Z,96546.69
2023-10-20T18:26:24.980Z,96537.52
2023-10-20T18:29:30.923Z,96542.73
2023-10-20T18:32:37.332Z,96553.48
2023-10-20T18:35:43.521Z,96555.45
2023-10-20T18:38:49.316Z,96549.52
2023-10-20T18:41:54.931Z,96543.89
2023-10-20T18:45:02.210Z,96543.81
2023-10-20T18:48:09.240Z,96546.23
2023-10-20T18:51:16.768Z,96554.15
2023-10-20T18:54:22.516Z,96555.21
2023-10-20T18:57:28.619Z,96553.68
2023-10-20T19:00:35.713Z,96560.42
2023-10-20T19:03:41.861Z,96558.84
2023-10-20T19:06:53.054Z,96564.38
2023-10-20T19:09:59.113Z,96571.29
2023-10-20T19:13:05.510Z,96579.63
2023-10-20T19:16:11.619Z,96581.44
2023-10-20T19:19:18.270Z,96584.23
2023-10-20T19:22:24.184Z,96579.40
2023-10-20T19:25:30.372Z,96587.18
2023-10-20T19:28:39.326Z,96602.64
2023-10-20T19:31:45.650Z,96602.63
2023-10-20T19:34:52.221Z,96600.44
2023-10-20T19:37:57.834Z,96610.46
2023-10-20T19:41:03.589Z,96610.95
2023-10-20T19:44:09.695Z,96609.80
2023-10-20T19:47:15.297Z,96610.06
2023-10-20T19:50:21.394Z,96608.91
2023-10-20T19:53:27.190Z,96606.44
2023-10-20T19:56:33.264Z,96603.36
2023-10-20T19:59:39.743Z,96610.86
2023-10-20T20:02:45.718Z,96601.92
2023-10-20T20:05:50.502Z,96599.89
2023-10-20T20:08:56.582Z,96600.10
2023-10-20T20:12:02.367Z,96596.81
2023-10-20T20:15:10.226Z,96598.62
2023-10-20T20:18:16.131Z,96586.77
2023-10-20T20:21:20.673Z,96591.58
2023-10-20T20:24:26.656Z,96590.81
2023-10-20T20:27:32.636Z,96593.79
2023-10-20T20:30:38.185Z,96588.02
2023-10-20T20:33:44.070Z,96598.89
2023-10-20T20:36:48.365Z,96598.86
2023-10-20T20:39:53.884Z,96605.02
2023-10-20T20:42:59.848Z,96614.23
2023-10-20T20:46:06.130Z,96615.96
2023-10-20T20:49:11.760Z,96617.61
2023-10-20T20:52:17.729Z,96617.39
2023-10-20T20:55:23.282Z,96619.44
2023-10-20T20:58:28.954Z,96615.11
2023-10-20T21:01:34.793Z,96617.48
2023-10-20T21:04:40.514Z,96627.00
2023-10-20T21:07:46.292Z,96627.49
2023-10-20T21:10:51.907Z,96626.35
2023-10-20T21:13:57.868Z,96623.95
2023-10-20T21:17:03.791Z,96618.02
2023-10-20T21:20:11.217Z,96615.30
2023-10-20T21:23:17.735Z,96620.89
2023-10-20T21:26:24.500Z,96625.80
2023-10-20T21:29:30.239Z,96628.05
2023-10-20T21:32:36.176Z,96623.39
2023-10-20T21:35:45.165Z,96623.91
2023-10-20T21:38:51.226Z,96620.81
2023-10-20T21:41:57.974Z,96624.45
2023-10-20T21:45:04.013Z,96628.23
2023-10-20T21:48:10.794Z,96630.20
2023-10-20T21:51:17.283Z,96629.59
2023-10-20T21:54:22.981Z,96630.96
2023-10-20T21:57:28.781Z,96626.91
2023-10-20T22:00:37.871Z,96623.00
2023-10-20T22:03:43.907Z,96625.73
2023-10-20T22:06:49.765Z,96621.15
2023-10-20T22:09:55.767Z,96625.67
2023-10-20T22:13:01.521Z,96620.68
2023-10-20T22:16:08.349Z,96619.63
2023-10-20T22:19:14.290Z,96620.89
2023-10-20T22:22:19.944Z,96622.80
2023-10-20T22:25:26.048Z,96625.04
2023-10-20T22:28:32.360Z,96619.46
2023-10-20T22:31:38.465Z,96623.30
2023-10-20T22:34:44.295Z,96622.77
2023-10-20T22:37:49.620Z,96626.16
2023-10-20T22:40:55.374Z,96622.94
2023-10-20T22:44:01.354Z,96622.45
2023-10-20T22:47:06.027Z,96622.77
2023-10-20T22:50:19.144Z,96623.54
2023-10-20T22:53:25.018Z,96622.64
2023-10-20T22:56:32.260Z,96623.54
2023-10-20T22:59:37.997Z,96625.62
2023-10-20T23:02:44.938Z,96630.70
2023-10-20T23:05:50.934Z,96631.65
2023-10-20T23:08:56.783Z,96629.86
2023-10-20T23:12:02.521Z,96632.17
2023-10-20T23:15:10.716Z,96634.66
2023-10-20T23:18:16.750Z,96634.36
2023-10-20T23:21:22.714Z,96648.33
2023-10-20T23:24:28.453Z,96661.34
2023-10-20T23:27:34.229Z,96657.93
2023-10-20T23:30:39.832Z,96659.96
2023-10-20T23:33:45.557Z,96655.02
2023-10-20T23:36:51.391Z,96658.48
2023-10-20T23:39:57.679Z,96678.25
2023-10-20T23:43:03.412Z,96669.80
2023-10-20T23:46:09.195Z,96672.66
2023-10-20T23:49:15.947Z,96676.19
2023-10-20T23:52:21.794Z,96687.08
2023-10-20T23:55:30.387Z,96696.70
2023-10-20T23:58:36.181Z,96698.17
